createdAt,value
2022-12-17T00:01:46.696Z,98774.50
2022-12-17T00:05:27.665Z,98771.94
2022-12-17T00:09:08.093Z,98761.50
2022-12-17T00:12:49.278Z,98776.28
2022-12-17T00:16:29.594Z,98770.59
2022-12-17T00:20:09.701Z,98769.97
2022-12-17T00:23:50.066Z,98768.47
2022-12-17T00:27:30.669Z,98768.16
2022-12-17T00:31:11.565Z,98763.72
2022-12-17T00:34:53.728Z,98774.56
2022-12-17T00:38:38.549Z,98781.06
2022-12-17T00:42:19.162Z,98786.13
2022-12-17T00:45:59.312Z,98782.66
2022-12-17T00:49:40.118Z,98790.50
2022-12-17T00:53:20.437Z,98796.78
2022-12-17T00:57:00.936Z,98790.56
2022-12-17T01:00:41.400Z,98804.34
2022-12-17T01:04:22.154Z,98791.56
2022-12-17T01:08:03.986Z,98807.59
2022-12-17T01:11:44.606Z,98783.31
2022-12-17T01:15:26.501Z,98800.75
2022-12-17T01:19:08.401Z,98810.66
2022-12-17T01:22:50.618Z,98812.97
2022-12-17T01:26:32.352Z,98820.34
2022-12-17T01:30:12.772Z,98836.78
2022-12-17T01:33:54.047Z,98828.66
2022-12-17T01:37:34.820Z,98841.88
2022-12-17T01:41:27.947Z,98851.25
2022-12-17T01:45:13.758Z,98853.88
2022-12-17T01:49:06.563Z,98860.09
2022-12-17T01:52:46.879Z,98849.50
2022-12-17T01:56:30.678Z,98851.59
2022-12-17T02:00:28.709Z,98853.06
2022-12-17T02:04:09.948Z,98863.13
2022-12-17T02:08:29.266Z,98862.94
2022-12-17T02:12:47.160Z,98869.47
2022-12-17T02:16:45.727Z,98874.75
2022-12-17T02:20:41.247Z,98874.84
2022-12-17T02:24:33.200Z,98876.25
2022-12-17T02:28:15.564Z,98870.78
2022-12-17T02:32:00.126Z,98861.41
2022-12-17T02:35:53.484Z,98880.25
2022-12-17T02:39:40.582Z,98876.59
2022-12-17T02:43:22.449Z,98884.91
2022-12-17T02:47:04.866Z,98884.88
2022-12-17T02:50:47.484Z,98886.22
2022-12-17T02:54:38.216Z,98879.09
2022-12-17T02:58:18.881Z,98876.69
2022-12-17T03:01:59.469Z,98889.25
2022-12-17T03:05:51.047Z,98893.44
2022-12-17T03:09:40.714Z,98893.97
2022-12-17T03:13:22.413Z,98908.78
2022-12-17T03:17:10.912Z,98899.25
2022-12-17T03:20:51.372Z,98892.94
2022-12-17T03:24:54.748Z,98900.25
2022-12-17T03:28:44.171Z,98893.53
2022-12-17T03:32:24.625Z,98900.97
2022-12-17T03:36:05.167Z,98900.34
2022-12-17T03:39:51.165Z,98896.22
2022-12-17T03:43:31.345Z,98904.53
2022-12-17T03:47:11.810Z,98925.81
2022-12-17T03:50:53.239Z,98920.44
2022-12-17T03:54:40.786Z,98923.09
2022-12-17T03:58:23.013Z,98916.22
2022-12-17T04:02:03.485Z,98918.72
2022-12-17T04:05:49.752Z,98915.13
2022-12-17T04:09:31.195Z,98913.28
2022-12-17T04:13:16.555Z,98924.94
2022-12-17T04:16:58.747Z,98916.41
2022-12-17T04:20:39.258Z,98923.00
2022-12-17T04:24:19.811Z,98927.47
2022-12-17T04:28:00.511Z,98927.63
2022-12-17T04:31:41.277Z,98929.00
2022-12-17T04:35:35.781Z,98943.25
2022-12-17T04:39:16.248Z,98940.34
2022-12-17T04:42:56.785Z,98944.13
2022-12-17T04:46:37.168Z,98942.75
2022-12-17T04:50:18.536Z,98954.38
2022-12-17T04:53:59.170Z,98946.72
2022-12-17T04:57:39.661Z,98948.50
2022-12-17T05:01:19.974Z,98953.25
2022-12-17T05:05:01.166Z,98944.78
2022-12-17T05:08:42.707Z,98953.94
2022-12-17T05:12:23.304Z,98956.75
2022-12-17T05:16:04.109Z,98980.06
2022-12-17T05:19:49.748Z,98971.78
2022-12-17T05:23:34.466Z,98977.09
2022-12-17T05:27:17.116Z,98982.47
2022-12-17T05:31:01.212Z,98978.84
2022-12-17T05:34:41.850Z,98990.88
2022-12-17T05:38:28.733Z,98983.41
2022-12-17T05:42:08.978Z,98983.75
2022-12-17T05:45:49.390Z,98989.00
2022-12-17T05:49:33.139Z,98989.03
2022-12-17T05:53:21.788Z,98989.88
2022-12-17T05:57:02.263Z,98999.06
2022-12-17T06:00:43.165Z,98990.56
2022-12-17T06:04:29.056Z,98988.31
2022-12-17T06:08:26.126Z,99014.41
2022-12-17T06:12:06.468Z,99020.94
2022-12-17T06:15:46.876Z,99033.66
2022-12-17T06:19:27.596Z,99042.59
2022-12-17T06:23:29.217Z,99040.50
2022-12-17T06:27:10.326Z,99043.22
2022-12-17T06:30:51.428Z,99035.50
2022-12-17T06:34:31.799Z,99051.41
2022-12-17T06:38:25.508Z,99058.56
2022-12-17T06:42:05.912Z,99069.75
2022-12-17T06:45:46.505Z,99065.22
2022-12-17T06:49:27.787Z,99067.41
2022-12-17T06:53:21.573Z,99085.56
2022-12-17T06:57:02.245Z,99082.06
2022-12-17T07:00:43.745Z,99096.78
2022-12-17T07:04:26.626Z,99095.50
2022-12-17T07:08:07.871Z,99097.75
2022-12-17T07:11:48.291Z,99097.69
2022-12-17T07:15:29.234Z,99083.97
2022-12-17T07:19:10.589Z,99099.59
2022-12-17T07:22:50.915Z,99103.25
2022-12-17T07:26:33.154Z,99113.53
2022-12-17T07:30:41.668Z,99105.66
2022-12-17T07:34:22.001Z,99115.28
2022-12-17T07:38:02.358Z,99119.84
2022-12-17T07:41:43.077Z,99116.50
2022-12-17T07:45:24.816Z,99120.84
2022-12-17T07:49:06.517Z,99103.91
2022-12-17T07:52:46.581Z,99119.56
2022-12-17T07:56:35.465Z,99120.09
2022-12-17T08:00:20.163Z,99117.66
2022-12-17T08:04:01.927Z,99117.50
2022-12-17T08:08:05.404Z,99134.34
2022-12-17T08:11:45.625Z,99161.66
2022-12-17T08:15:35.398Z,99167.69
2022-12-17T08:19:15.702Z,99161.78
2022-12-17T08:22:58.699Z,99165.84
2022-12-17T08:26:42.046Z,99177.94
2022-12-17T08:30:26.376Z,99195.00
2022-12-17T08:34:08.368Z,99204.34
2022-12-17T08:37:52.899Z,99199.06
2022-12-17T08:41:38.310Z,99205.53
2022-12-17T08:45:32.032Z,99203.78
2022-12-17T08:49:13.865Z,99196.44
2022-12-17T08:52:54.035Z,99186.59
2022-12-17T08:56:34.204Z,99178.19
2022-12-17T09:00:16.395Z,99193.41
2022-12-17T09:03:56.864Z,99197.94
2022-12-17T09:07:37.711Z,99192.47
2022-12-17T09:11:19.259Z,99189.44
2022-12-17T09:14:59.775Z,99175.78
2022-12-17T09:18:51.315Z,99200.00
2022-12-17T09:22:35.202Z,99202.59
2022-12-17T09:26:16.198Z,99202.16
2022-12-17T09:29:56.717Z,99196.50
2022-12-17T09:33:38.105Z,99205.91
2022-12-17T09:37:18.764Z,99223.19
2022-12-17T09:41:06.947Z,99218.34
2022-12-17T09:45:39.149Z,99206.66
2022-12-17T09:49:44.516Z,99222.50
2022-12-17T09:53:41.135Z,99231.63
2022-12-17T09:57:24.749Z,99232.19
2022-12-17T10:01:08.495Z,99236.44
2022-12-17T10:05:24.426Z,99231.41
2022-12-17T10:09:12.608Z,99219.19
2022-12-17T10:12:52.997Z,99223.09
2022-12-17T10:16:52.102Z,99234.28
2022-12-17T10:20:48.542Z,99213.78
2022-12-17T10:24:30.069Z,99223.00
2022-12-17T10:28:10.690Z,99216.63
2022-12-17T10:31:51.811Z,99231.09
2022-12-17T10:35:45.069Z,99226.59
2022-12-17T10:39:44.940Z,99227.09
2022-12-17T10:43:44.387Z,99228.19
2022-12-17T10:47:32.179Z,99222.09
2022-12-17T10:51:12.632Z,99227.94
2022-12-17T10:54:53.679Z,99222.41
2022-12-17T10:58:46.587Z,99230.19
2022-12-17T11:02:44.234Z,99217.56
2022-12-17T11:06:25.545Z,99228.56
2022-12-17T11:10:15.143Z,99223.91
2022-12-17T11:14:03.391Z,99225.66
2022-12-17T11:17:55.154Z,99209.63
2022-12-17T11:21:52.082Z,99217.03
2022-12-17T11:25:46.670Z,99221.22
2022-12-17T11:29:33.191Z,99212.84
2022-12-17T11:33:40.645Z,99218.00
2022-12-17T11:37:39.992Z,99219.59
2022-12-17T11:41:32.014Z,99210.03
2022-12-17T11:45:53.988Z,99219.59
2022-12-17T11:50:26.248Z,99218.44
2022-12-17T11:54:45.475Z,99220.81
2022-12-17T11:58:53.470Z,99206.31
2022-12-17T12:02:52.201Z,99211.44
2022-12-17T12:07:05.004Z,99204.41
2022-12-17T12:11:10.452Z,99194.13
2022-12-17T12:15:02.650Z,99204.19
2022-12-17T12:19:06.334Z,99199.72
2022-12-17T12:23:43.199Z,99196.78
2022-12-17T12:27:45.382Z,99206.69
2022-12-17T12:31:36.434Z,99207.88
2022-12-17T12:35:23.314Z,99191.88
2022-12-17T12:39:12.868Z,99197.53
2022-12-17T12:43:14.358Z,99201.44
2022-12-17T12:47:17.150Z,99197.63
2022-12-17T12:51:41.735Z,99200.16
2022-12-17T12:55:22.394Z,99182.69
2022-12-17T12:59:02.671Z,99183.00
2022-12-17T13:02:50.496Z,99194.97
2022-12-17T13:06:36.373Z,99199.84
2022-12-17T13:10:00.670Z,99196.59
2022-12-17T13:13:26.429Z,99181.69
2022-12-17T13:16:54.399Z,99185.81
2022-12-17T13:20:34.982Z,99172.09
2022-12-17T13:23:58.835Z,99156.47
2022-12-17T13:27:33.754Z,99150.63
2022-12-17T13:31:16.181Z,99143.66
2022-12-17T13:35:20.408Z,99151.28
2022-12-17T13:39:03.698Z,99152.34
2022-12-17T13:42:36.327Z,99146.19
2022-12-17T13:45:58.586Z,99165.25
2022-12-17T13:49:29.874Z,99161.84
2022-12-17T13:52:51.974Z,99151.72
2022-12-17T13:56:15.670Z,99164.06
2022-12-17T13:59:39.425Z,99159.75
2022-12-17T14:03:11.931Z,99172.09
2022-12-17T14:06:38.344Z,99147.38
2022-12-17T14:10:00.585Z,99171.38
2022-12-17T14:13:22.433Z,99151.06
2022-12-17T14:16:50.619Z,99167.09
2022-12-17T14:20:26.092Z,99183.84
2022-12-17T14:23:51.251Z,99181.13
2022-12-17T14:27:33.227Z,99180.97
2022-12-17T14:31:28.156Z,99193.50
2022-12-17T14:34:51.958Z,99203.66
2022-12-17T14:38:37.445Z,99194.88
2022-12-17T14:42:26.263Z,99195.94
2022-12-17T14:46:19.266Z,99212.88
2022-12-17T14:50:01.948Z,99209.31
2022-12-17T14:53:27.562Z,99211.00
2022-12-17T14:56:50.492Z,99214.44
2022-12-17T15:00:13.721Z,99197.72
2022-12-17T15:03:41.932Z,99208.53
2022-12-17T15:07:09.049Z,99206.16
2022-12-17T15:10:34.004Z,99209.19
2022-12-17T15:13:57.036Z,99202.75
2022-12-17T15:17:18.928Z,99194.69
2022-12-17T15:20:40.879Z,99180.94
2022-12-17T15:24:03.178Z,99206.38
2022-12-17T15:27:24.963Z,99209.31
2022-12-17T15:30:48.964Z,99211.13
2022-12-17T15:34:12.232Z,99207.28
2022-12-17T15:37:35.611Z,99201.78
2022-12-17T15:41:01.017Z,99215.38
2022-12-17T15:44:23.946Z,99207.66
2022-12-17T15:47:45.751Z,99216.94
2022-12-17T15:51:07.922Z,99232.91
2022-12-17T15:54:29.814Z,99234.91
2022-12-17T15:57:51.605Z,99236.34
2022-12-17T16:01:13.719Z,99231.06
2022-12-17T16:04:37.777Z,99217.84
2022-12-17T16:08:02.232Z,99223.38
2022-12-17T16:11:24.142Z,99222.59
2022-12-17T16:14:47.025Z,99224.03
2022-12-17T16:18:08.881Z,99233.03
2022-12-17T16:21:30.696Z,99239.06
2022-12-17T16:24:52.870Z,99248.53
2022-12-17T16:28:14.768Z,99240.66
2022-12-17T16:31:37.407Z,99256.47
2022-12-17T16:35:00.745Z,99241.72
2022-12-17T16:38:22.727Z,99245.53
2022-12-17T16:41:45.507Z,99240.66
2022-12-17T16:45:10.038Z,99255.31
2022-12-17T16:48:39.585Z,99248.44
2022-12-17T16:52:07.646Z,99248.59
2022-12-17T16:55:31.917Z,99257.84
2022-12-17T16:58:56.610Z,99255.34
2022-12-17T17:02:18.758Z,99248.72
2022-12-17T17:05:42.662Z,99244.53
2022-12-17T17:09:05.515Z,99245.03
2022-12-17T17:12:27.500Z,99250.84
2022-12-17T17:15:49.723Z,99218.19
2022-12-17T17:19:12.656Z,99242.59
2022-12-17T17:22:35.639Z,99243.75
2022-12-17T17:25:58.707Z,99260.91
2022-12-17T17:29:20.894Z,99263.31
2022-12-17T17:32:42.954Z,99260.84
2022-12-17T17:36:06.936Z,99270.31
2022-12-17T17:39:32.927Z,99276.03
2022-12-17T17:42:54.722Z,99266.91
2022-12-17T17:46:18.969Z,99263.09
2022-12-17T17:49:40.863Z,99255.56
2022-12-17T17:53:03.693Z,99272.34
2022-12-17T17:56:33.527Z,99269.94
2022-12-17T17:59:55.321Z,99266.06
2022-12-17T18:03:17.546Z,99259.94
2022-12-17T18:06:52.963Z,99259.00
2022-12-17T18:10:26.036Z,99270.94
2022-12-17T18:13:57.172Z,99269.34
2022-12-17T18:17:18.977Z,99273.94
2022-12-17T18:20:40.774Z,99273.00
2022-12-17T18:24:07.747Z,99269.63
2022-12-17T18:27:29.558Z,99249.19
2022-12-17T18:30:51.427Z,99262.41
2022-12-17T18:34:17.182Z,99271.69
2022-12-17T18:37:39.231Z,99266.41
2022-12-17T18:41:33.231Z,99270.38
2022-12-17T18:44:55.340Z,99266.19
2022-12-17T18:48:17.862Z,99250.59
2022-12-17T18:51:43.596Z,99251.06
2022-12-17T18:55:06.257Z,99251.13
2022-12-17T18:58:28.167Z,99266.81
2022-12-17T19:01:50.940Z,99260.16
2022-12-17T19:05:12.895Z,99268.97
2022-12-17T19:08:36.561Z,99271.09
2022-12-17T19:11:58.891Z,99252.69
2022-12-17T19:15:21.798Z,99282.81
2022-12-17T19:18:45.011Z,99289.63
2022-12-17T19:22:09.393Z,99274.19
2022-12-17T19:25:31.270Z,99289.34
2022-12-17T19:28:55.415Z,99282.81
2022-12-17T19:32:17.921Z,99290.94
2022-12-17T19:35:40.827Z,99288.16
2022-12-17T19:39:07.219Z,99298.66
2022-12-17T19:42:41.120Z,99288.03
2022-12-17T19:46:06.533Z,99302.34
2022-12-17T19:49:28.427Z,99263.44
2022-12-17T19:52:52.575Z,99304.72
2022-12-17T19:56:18.101Z,99310.97
2022-12-17T19:59:47.938Z,99320.78
2022-12-17T20:03:10.044Z,99310.47
2022-12-17T20:06:34.907Z,99316.31
2022-12-17T20:09:59.828Z,99314.44
2022-12-17T20:13:21.670Z,99317.56
2022-12-17T20:16:51.966Z,99319.59
2022-12-17T20:20:15.134Z,99318.88
2022-12-17T20:23:36.940Z,99310.28
2022-12-17T20:27:12.884Z,99311.16
2022-12-17T20:30:35.133Z,99307.28
2022-12-17T20:33:58.617Z,99313.75
2022-12-17T20:37:20.438Z,99307.47
2022-12-17T20:40:43.288Z,99301.28
2022-12-17T20:44:14.325Z,99306.00
2022-12-17T20:47:36.147Z,99297.50
2022-12-17T20:50:58.032Z,99328.28
2022-12-17T20:54:21.969Z,99321.69
2022-12-17T20:57:44.859Z,99326.16
2022-12-17T21:01:11.462Z,99307.50
2022-12-17T21:04:36.422Z,99309.53
2022-12-17T21:07:58.351Z,99294.72
2022-12-17T21:11:26.430Z,99318.50
2022-12-17T21:14:49.449Z,99324.03
2022-12-17T21:18:11.232Z,99313.38
2022-12-17T21:21:37.344Z,99336.84
2022-12-17T21:24:59.189Z,99345.75
2022-12-17T21:28:23.998Z,99316.63
2022-12-17T21:31:49.434Z,99338.03
2022-12-17T21:35:11.517Z,99322.47
2022-12-17T21:38:33.357Z,99328.56
2022-12-17T21:42:13.928Z,99340.03
2022-12-17T21:45:42.133Z,99339.06
2022-12-17T21:49:08.133Z,99344.91
2022-12-17T21:52:32.287Z,99341.53
2022-12-17T21:56:07.876Z,99335.38
2022-12-17T21:59:32.049Z,99331.28
2022-12-17T22:02:54.177Z,99321.59
2022-12-17T22:06:20.789Z,99338.59
2022-12-17T22:10:26.748Z,99339.63
2022-12-17T22:14:07.263Z,99370.31
2022-12-17T22:17:41.731Z,99360.28
2022-12-17T22:21:03.713Z,99358.94
2022-12-17T22:24:36.433Z,99364.66
2022-12-17T22:27:58.665Z,99354.53
2022-12-17T22:31:40.964Z,99350.16
2022-12-17T22:36:19.921Z,99362.16
2022-12-17T22:41:38.507Z,99369.06
2022-12-17T22:44:41.151Z,99372.56
2022-12-17T22:46:30.316Z,99365.78
2022-12-17T22:49:52.404Z,99373.25
2022-12-17T22:53:15.071Z,99367.22
2022-12-17T22:57:08.382Z,99370.63
2022-12-17T23:00:26.659Z,99379.28
2022-12-17T23:03:55.619Z,99375.81
2022-12-17T23:07:31.904Z,99352.34
2022-12-17T23:10:56.535Z,99358.72
2022-12-17T23:14:18.670Z,99358.81
2022-12-17T23:17:40.514Z,99358.88
2022-12-17T23:21:19.023Z,99368.75
2022-12-17T23:24:41.884Z,99361.84
2022-12-17T23:28:06.781Z,99367.84
2022-12-17T23:31:37.477Z,99353.69
2022-12-17T23:34:59.350Z,99341.66
2022-12-17T23:38:32.228Z,99340.72
2022-12-17T23:41:56.925Z,99327.53
2022-12-17T23:45:18.795Z,99341.34
2022-12-17T23:48:45.545Z,99330.84
2022-12-17T23:52:07.959Z,99339.25
2022-12-17T23:55:41.675Z,99329.22
2022-12-17T23:59:04.325Z,99348.53
